createdAt,value
2018-07-06T00:00:40.154Z,25.9
2018-07-06T00:01:40.327Z,25.84
2018-07-06T00:02:40.612Z,25.81
2018-07-06T00:03:40.385Z,25.84
2018-07-06T00:04:40.398Z,25.84
2018-07-06T00:05:40.429Z,25.81
2018-07-06T00:06:40.481Z,25.78
2018-07-06T00:07:40.228Z,25.75
2018-07-06T00:08:40.438Z,25.73
2018-07-06T00:09:40.825Z,25.73
2018-07-06T00:10:40.223Z,25.65
2018-07-06T00:11:40.682Z,25.69
2018-07-06T00:12:40.908Z,25.7
2018-07-06T00:13:40.642Z,25.69
2018-07-06T00:14:41.548Z,25.68
2018-07-06T00:15:40.882Z,25.59
2018-07-06T00:16:40.806Z,25.59
2018-07-06T00:17:40.805Z,25.6
2018-07-06T00:18:40.584Z,25.55
2018-07-06T00:19:40.725Z,25.55
2018-07-06T00:20:40.919Z,25.53
2018-07-06T00:21:40.803Z,25.51
2018-07-06T00:22:40.895Z,25.59
2018-07-06T00:23:40.956Z,25.5
2018-07-06T00:24:40.824Z,25.54
2018-07-06T00:25:41.007Z,25.58
2018-07-06T00:26:40.857Z,25.53
2018-07-06T00:27:41.103Z,25.43
2018-07-06T00:28:40.769Z,25.48
2018-07-06T00:29:40.790Z,25.44
2018-07-06T00:30:47.356Z,25.5
2018-07-06T00:31:40.839Z,25.47
2018-07-06T00:32:41.135Z,25.41
2018-07-06T00:33:41.162Z,25.33
2018-07-06T00:34:41.184Z,25.4
2018-07-06T00:35:41.215Z,25.36
2018-07-06T00:36:41.322Z,25.36
2018-07-06T00:37:41.000Z,25.4
2018-07-06T00:38:41.026Z,25.35
2018-07-06T00:39:41.318Z,25.33
2018-07-06T00:40:41.343Z,25.29
2018-07-06T00:41:41.110Z,25.36
2018-07-06T00:42:41.397Z,25.26
2018-07-06T00:43:41.422Z,25.32
2018-07-06T00:44:41.459Z,25.22
2018-07-06T00:45:41.209Z,25.25
2018-07-06T00:46:41.501Z,25.17
2018-07-06T00:47:41.530Z,25.11
2018-07-06T00:48:41.023Z,25.21
2018-07-06T00:49:41.579Z,25.21
2018-07-06T00:50:41.611Z,25.13
2018-07-06T00:51:41.630Z,25.1
2018-07-06T00:52:41.705Z,25.17
2018-07-06T00:53:41.686Z,25.1
2018-07-06T00:54:41.494Z,25.18
2018-07-06T00:55:41.744Z,25.14
2018-07-06T00:56:41.497Z,25.13
2018-07-06T00:57:41.528Z,25.14
2018-07-06T00:58:41.553Z,25.07
2018-07-06T00:59:41.846Z,24.96
2018-07-06T01:00:41.869Z,24.99
2018-07-06T01:01:41.763Z,25.03
2018-07-06T01:02:41.656Z,24.99
2018-07-06T01:03:41.959Z,25.01
2018-07-06T01:04:41.984Z,24.96
2018-07-06T01:05:41.732Z,24.98
2018-07-06T01:06:42.029Z,24.93
2018-07-06T01:07:42.052Z,24.89
2018-07-06T01:08:42.080Z,24.86
2018-07-06T01:09:41.836Z,24.91
2018-07-06T01:10:42.137Z,24.86
2018-07-06T01:11:42.156Z,24.84
2018-07-06T01:12:42.183Z,24.85
2018-07-06T01:13:42.217Z,24.89
2018-07-06T01:14:42.237Z,24.88
2018-07-06T01:15:41.996Z,24.88
2018-07-06T01:16:42.286Z,24.74
2018-07-06T01:17:42.047Z,24.81
2018-07-06T01:18:42.333Z,24.7
2018-07-06T01:19:42.372Z,24.77
2018-07-06T01:20:42.388Z,24.78
2018-07-06T01:21:42.428Z,24.77
2018-07-06T01:22:42.179Z,24.76
2018-07-06T01:23:42.198Z,24.69
2018-07-06T01:24:42.499Z,24.68
2018-07-06T01:25:42.538Z,24.77
2018-07-06T01:26:42.544Z,24.7
2018-07-06T01:27:42.577Z,24.61
2018-07-06T01:28:42.598Z,24.58
2018-07-06T01:29:42.672Z,24.69
2018-07-06T01:30:42.649Z,24.61
2018-07-06T01:31:42.674Z,24.65
2018-07-06T01:32:42.703Z,24.58
2018-07-06T01:33:42.735Z,24.65
2018-07-06T01:34:42.750Z,24.63
2018-07-06T01:35:42.785Z,24.51
2018-07-06T01:36:42.798Z,24.55
2018-07-06T01:37:42.838Z,24.51
2018-07-06T01:38:42.853Z,24.47
2018-07-06T01:39:42.625Z,24.53
2018-07-06T01:40:42.640Z,24.51
2018-07-06T01:41:42.930Z,24.48
2018-07-06T01:42:42.959Z,24.42
2018-07-06T01:43:43.038Z,24.42
2018-07-06T01:44:43.011Z,24.4
2018-07-06T01:45:43.037Z,24.45
2018-07-06T01:46:43.076Z,24.48
2018-07-06T01:47:43.093Z,24.38
2018-07-06T01:48:42.845Z,24.42
2018-07-06T01:49:43.142Z,24.36
2018-07-06T01:50:42.899Z,24.36
2018-07-06T01:51:43.189Z,24.36
2018-07-06T01:52:42.948Z,24.3
2018-07-06T01:53:43.243Z,24.3
2018-07-06T01:54:43.269Z,24.26
2018-07-06T01:55:43.028Z,24.29
2018-07-06T01:56:43.319Z,24.26
2018-07-06T01:57:43.341Z,24.26
2018-07-06T01:58:43.362Z,24.21
2018-07-06T01:59:43.124Z,24.18
2018-07-06T02:00:43.417Z,24.17
2018-07-06T02:01:43.177Z,24.18
2018-07-06T02:02:43.467Z,24.18
2018-07-06T02:03:43.494Z,24.16
2018-07-06T02:04:43.252Z,24.11
2018-07-06T02:05:43.545Z,24.16
2018-07-06T02:06:43.565Z,24.05
2018-07-06T02:07:43.593Z,24.1
2018-07-06T02:08:43.664Z,24.08
2018-07-06T02:09:43.682Z,24.11
2018-07-06T02:10:43.406Z,24.02
2018-07-06T02:11:43.699Z,24.02
2018-07-06T02:12:43.730Z,24.02
2018-07-06T02:13:43.753Z,23.96
2018-07-06T02:14:43.510Z,23.91
2018-07-06T02:15:43.535Z,23.95
2018-07-06T02:16:43.822Z,23.92
2018-07-06T02:17:43.580Z,23.91
2018-07-06T02:18:43.872Z,23.86
2018-07-06T02:19:43.953Z,23.87
2018-07-06T02:20:43.927Z,23.86
2018-07-06T02:21:43.418Z,23.84
2018-07-06T02:22:43.974Z,23.88
2018-07-06T02:23:43.737Z,23.81
2018-07-06T02:24:44.021Z,23.8
2018-07-06T02:25:43.787Z,23.81
2018-07-06T02:26:44.083Z,23.74
2018-07-06T02:27:44.105Z,23.73
2018-07-06T02:28:44.129Z,23.76
2018-07-06T02:29:43.889Z,23.78
2018-07-06T02:30:43.926Z,23.8
2018-07-06T02:31:44.214Z,23.73
2018-07-06T02:32:43.963Z,23.77
2018-07-06T02:33:44.256Z,23.77
2018-07-06T02:34:44.287Z,23.74
2018-07-06T02:35:44.304Z,23.69
2018-07-06T02:36:44.068Z,23.68
2018-07-06T02:37:44.087Z,23.74
2018-07-06T02:38:44.116Z,23.69
2018-07-06T02:39:44.404Z,23.73
2018-07-06T02:40:44.433Z,23.65
2018-07-06T02:41:44.452Z,23.66
2018-07-06T02:42:44.483Z,23.68
2018-07-06T02:43:44.510Z,23.65
2018-07-06T02:44:44.536Z,23.59
2018-07-06T02:45:44.560Z,23.65
2018-07-06T02:46:44.605Z,23.56
2018-07-06T02:47:44.604Z,23.54
2018-07-06T02:48:44.634Z,23.55
2018-07-06T02:49:44.657Z,23.55
2018-07-06T02:50:44.701Z,23.58
2018-07-06T02:51:44.702Z,23.51
2018-07-06T02:52:44.756Z,23.46
2018-07-06T02:53:44.760Z,23.47
2018-07-06T02:54:44.781Z,23.5
2018-07-06T02:55:44.811Z,23.5
2018-07-06T02:56:44.834Z,23.47
2018-07-06T02:57:44.860Z,23.4
2018-07-06T02:58:44.885Z,23.39
2018-07-06T02:59:44.930Z,23.39
2018-07-06T03:00:44.935Z,23.37
2018-07-06T03:01:44.966Z,23.31
2018-07-06T03:02:44.979Z,23.27
2018-07-06T03:03:44.469Z,23.43
2018-07-06T03:04:45.029Z,23.41
2018-07-06T03:05:45.058Z,23.23
2018-07-06T03:06:44.809Z,23.21
2018-07-06T03:07:45.116Z,23.24
2018-07-06T03:08:45.140Z,23.27
2018-07-06T03:09:44.891Z,23.27
2018-07-06T03:10:44.648Z,23.21
2018-07-06T03:11:44.945Z,23.27
2018-07-06T03:12:44.963Z,23.24
2018-07-06T03:13:45.259Z,23.27
2018-07-06T03:14:45.281Z,23.2
2018-07-06T03:15:45.044Z,23.23
2018-07-06T03:16:45.059Z,23.15
2018-07-06T03:17:45.366Z,23.15
2018-07-06T03:18:45.437Z,23.13
2018-07-06T03:19:45.399Z,23.1
2018-07-06T03:20:45.427Z,23.09
2018-07-06T03:21:45.456Z,23.09
2018-07-06T03:22:45.478Z,23.1
2018-07-06T03:23:45.520Z,23.15
2018-07-06T03:24:45.257Z,23.1
2018-07-06T03:25:45.289Z,23.06
2018-07-06T03:26:45.592Z,23.06
2018-07-06T03:27:45.685Z,23.03
2018-07-06T03:28:46.784Z,23
2018-07-06T03:29:45.645Z,23.03
2018-07-06T03:30:45.413Z,22.94
2018-07-06T03:31:45.697Z,23.02
2018-07-06T03:32:45.456Z,23.02
2018-07-06T03:33:45.748Z,23
2018-07-06T03:34:45.774Z,23
2018-07-06T03:35:45.800Z,22.99
2018-07-06T03:36:45.824Z,22.94
2018-07-06T03:37:45.579Z,23
2018-07-06T03:38:45.600Z,23.02
2018-07-06T03:39:45.889Z,22.96
2018-07-06T03:40:45.949Z,22.99
2018-07-06T03:41:45.952Z,22.98
2018-07-06T03:42:45.963Z,22.94
2018-07-06T03:43:45.995Z,22.94
2018-07-06T03:44:45.750Z,22.88
2018-07-06T03:45:46.067Z,22.96
2018-07-06T03:46:45.800Z,22.96
2018-07-06T03:47:46.085Z,22.98
2018-07-06T03:48:46.112Z,23.03
2018-07-06T03:49:46.137Z,22.91
2018-07-06T03:50:46.163Z,22.94
2018-07-06T03:51:46.195Z,22.93
2018-07-06T03:52:46.214Z,22.93
2018-07-06T03:53:46.237Z,22.88
2018-07-06T03:54:46.263Z,22.91
2018-07-06T03:55:46.285Z,22.9
2018-07-06T03:56:46.041Z,22.9
2018-07-06T03:57:46.331Z,22.9
2018-07-06T03:58:46.355Z,22.87
2018-07-06T03:59:46.380Z,22.88
2018-07-06T04:00:46.405Z,22.9
2018-07-06T04:01:46.433Z,22.87
2018-07-06T04:02:46.186Z,22.88
2018-07-06T04:03:46.209Z,22.88
2018-07-06T04:04:46.517Z,22.87
2018-07-06T04:05:46.532Z,22.98
2018-07-06T04:06:46.554Z,22.9
2018-07-06T04:07:46.579Z,22.85
2018-07-06T04:08:46.338Z,22.84
2018-07-06T04:09:46.360Z,22.84
2018-07-06T04:10:46.657Z,22.91
2018-07-06T04:11:46.676Z,22.85
2018-07-06T04:12:46.696Z,22.93
2018-07-06T04:13:46.726Z,22.8
2018-07-06T04:14:46.480Z,22.88
2018-07-06T04:15:46.769Z,22.87
2018-07-06T04:16:46.802Z,22.87
2018-07-06T04:17:46.823Z,22.85
2018-07-06T04:18:46.844Z,22.83
2018-07-06T04:19:46.865Z,22.8
2018-07-06T04:20:46.891Z,22.87
2018-07-06T04:21:46.921Z,22.87
2018-07-06T04:22:46.945Z,22.87
2018-07-06T04:23:46.966Z,22.84
2018-07-06T04:24:46.727Z,22.91
2018-07-06T04:25:47.015Z,22.87
2018-07-06T04:26:46.787Z,22.83
2018-07-06T04:27:46.801Z,22.9
2018-07-06T04:28:47.085Z,22.83
2018-07-06T04:29:47.112Z,22.87
2018-07-06T04:30:46.869Z,22.84
2018-07-06T04:31:46.889Z,22.84
2018-07-06T04:32:46.915Z,22.81
2018-07-06T04:33:47.207Z,22.9
2018-07-06T04:34:47.232Z,22.98
2018-07-06T04:35:47.258Z,22.91
2018-07-06T04:36:47.281Z,22.87
2018-07-06T04:37:47.305Z,22.98
2018-07-06T04:38:47.331Z,22.94
2018-07-06T04:39:47.354Z,22.88
2018-07-06T04:40:47.379Z,22.84
2018-07-06T04:41:47.409Z,22.84
2018-07-06T04:42:47.435Z,22.93
2018-07-06T04:43:47.458Z,22.8
2018-07-06T04:44:47.474Z,22.8
2018-07-06T04:45:47.503Z,22.85
2018-07-06T04:46:47.527Z,22.8
2018-07-06T04:47:47.548Z,22.9
2018-07-06T04:48:47.569Z,22.88
2018-07-06T04:49:47.330Z,22.84
2018-07-06T04:50:47.618Z,22.87
2018-07-06T04:51:47.643Z,22.93
2018-07-06T04:52:47.406Z,22.84
2018-07-06T04:53:47.696Z,22.88
2018-07-06T04:54:47.183Z,22.87
2018-07-06T04:55:47.742Z,22.87
2018-07-06T04:56:47.767Z,22.83
2018-07-06T04:57:47.874Z,22.87
2018-07-06T04:58:47.818Z,22.83
2018-07-06T04:59:47.899Z,22.8
2018-07-06T05:00:47.867Z,22.8
2018-07-06T05:01:47.884Z,22.84
2018-07-06T05:02:47.914Z,22.83
2018-07-06T05:03:47.940Z,22.93
2018-07-06T05:04:47.692Z,22.81
2018-07-06T05:05:47.986Z,22.84
2018-07-06T05:06:47.741Z,22.91
2018-07-06T05:07:47.828Z,22.84
2018-07-06T05:08:47.790Z,22.96
2018-07-06T05:09:48.081Z,22.87
2018-07-06T05:10:48.109Z,22.91
2018-07-06T05:11:47.863Z,22.85
2018-07-06T05:12:48.157Z,22.85
2018-07-06T05:13:48.185Z,22.91
2018-07-06T05:14:48.204Z,22.88
2018-07-06T05:15:48.232Z,22.9
2018-07-06T05:16:48.638Z,22.87
2018-07-06T05:17:48.275Z,22.88
2018-07-06T05:18:48.033Z,22.9
2018-07-06T05:19:48.327Z,22.9
2018-07-06T05:20:48.348Z,22.93
2018-07-06T05:21:48.378Z,22.9
2018-07-06T05:22:48.132Z,22.94
2018-07-06T05:23:48.420Z,22.93
2018-07-06T05:24:48.448Z,22.88
2018-07-06T05:25:47.936Z,22.93
2018-07-06T05:26:48.226Z,22.96
2018-07-06T05:27:48.520Z,22.94
2018-07-06T05:28:48.281Z,22.91
2018-07-06T05:29:48.568Z,22.91
2018-07-06T05:30:48.589Z,22.91
2018-07-06T05:31:48.347Z,22.96
2018-07-06T05:32:48.379Z,22.96
2018-07-06T05:33:48.660Z,22.94
2018-07-06T05:34:48.416Z,22.88
2018-07-06T05:35:48.174Z,22.91
2018-07-06T05:36:48.200Z,22.98
2018-07-06T05:37:48.927Z,22.91
2018-07-06T05:38:48.512Z,22.94
2018-07-06T05:39:48.274Z,22.88
2018-07-06T05:40:48.850Z,22.96
2018-07-06T05:41:48.856Z,23
2018-07-06T05:42:48.610Z,22.99
2018-07-06T05:43:48.901Z,22.96
2018-07-06T05:44:48.931Z,23.05
2018-07-06T05:45:48.684Z,23.05
2018-07-06T05:46:48.975Z,23
2018-07-06T05:47:48.745Z,23
2018-07-06T05:48:48.762Z,22.93
2018-07-06T05:49:49.047Z,23.02
2018-07-06T05:50:49.069Z,23
2018-07-06T05:51:49.094Z,22.96
2018-07-06T05:52:49.131Z,23.02
2018-07-06T05:53:48.955Z,22.99
2018-07-06T05:54:49.170Z,23.03
2018-07-06T05:55:49.198Z,23.03
2018-07-06T05:56:49.216Z,23.09
2018-07-06T05:57:49.238Z,23.09
2018-07-06T05:58:49.264Z,23.1
2018-07-06T05:59:49.023Z,23.1
2018-07-06T06:00:49.315Z,23.12
2018-07-06T06:01:49.345Z,23.1
2018-07-06T06:02:49.360Z,23.18
2018-07-06T06:03:49.119Z,23.13
2018-07-06T06:04:49.184Z,23.15
2018-07-06T06:05:49.440Z,23.2
2018-07-06T06:06:49.482Z,23.24
2018-07-06T06:07:49.218Z,23.18
2018-07-06T06:08:49.504Z,23.21
2018-07-06T06:09:49.531Z,23.24
2018-07-06T06:10:49.376Z,23.24
2018-07-06T06:11:49.579Z,23.23
2018-07-06T06:12:49.610Z,23.24
2018-07-06T06:13:49.364Z,23.31
2018-07-06T06:14:49.497Z,23.25
2018-07-06T06:15:49.682Z,23.27
2018-07-06T06:16:49.706Z,23.27
2018-07-06T06:17:49.725Z,23.28
2018-07-06T06:18:50.164Z,23.34
2018-07-06T06:19:49.776Z,23.39
2018-07-06T06:20:49.801Z,23.39
2018-07-06T06:21:49.827Z,23.4
2018-07-06T06:22:49.851Z,23.41
2018-07-06T06:23:49.871Z,23.48
2018-07-06T06:24:50.003Z,23.54
2018-07-06T06:25:49.389Z,23.46
2018-07-06T06:26:49.949Z,23.56
2018-07-06T06:27:49.974Z,23.59
2018-07-06T06:28:49.723Z,23.59
2018-07-06T06:29:50.073Z,23.63
2018-07-06T06:30:50.047Z,23.62
2018-07-06T06:31:50.064Z,23.63
2018-07-06T06:32:50.099Z,23.66
2018-07-06T06:33:50.233Z,23.74
2018-07-06T06:34:49.878Z,23.74
2018-07-06T06:35:50.167Z,23.65
2018-07-06T06:36:50.088Z,23.73
2018-07-06T06:37:50.088Z,23.69
2018-07-06T06:38:50.242Z,23.84
2018-07-06T06:39:50.000Z,23.8
2018-07-06T06:40:50.027Z,23.74
2018-07-06T06:41:50.101Z,23.76
2018-07-06T06:42:49.802Z,23.71
2018-07-06T06:43:50.111Z,23.78
2018-07-06T06:44:50.640Z,23.66
2018-07-06T06:45:50.411Z,23.73
2018-07-06T06:46:50.594Z,23.8
2018-07-06T06:47:50.200Z,23.78
2018-07-06T06:48:50.486Z,23.78
2018-07-06T06:49:50.508Z,23.77
2018-07-06T06:50:50.613Z,23.83
2018-07-06T06:51:50.555Z,23.81
2018-07-06T06:52:50.324Z,23.91
2018-07-06T06:53:50.079Z,23.91
2018-07-06T06:54:50.364Z,23.92
2018-07-06T06:55:50.387Z,23.93
2018-07-06T06:56:50.684Z,23.95
2018-07-06T06:57:50.762Z,24.02
2018-07-06T06:58:50.727Z,24.05
2018-07-06T06:59:50.524Z,24.1
2018-07-06T07:00:50.513Z,24.11
2018-07-06T07:01:50.536Z,24.11
2018-07-06T07:02:50.571Z,24.14
2018-07-06T07:03:50.854Z,24.13
2018-07-06T07:04:51.448Z,24.2
2018-07-06T07:05:50.908Z,24.21
2018-07-06T07:06:50.658Z,24.23
2018-07-06T07:07:51.121Z,24.28
2018-07-06T07:08:51.024Z,24.29
2018-07-06T07:09:51.001Z,24.24
2018-07-06T07:10:50.759Z,24.35
2018-07-06T07:11:50.785Z,24.26
2018-07-06T07:12:50.821Z,24.33
2018-07-06T07:13:51.114Z,24.35
2018-07-06T07:14:51.122Z,24.3
2018-07-06T07:15:51.149Z,24.28
2018-07-06T07:16:51.177Z,24.4
2018-07-06T07:17:50.933Z,24.33
2018-07-06T07:18:50.693Z,24.38
2018-07-06T07:19:51.251Z,24.39
2018-07-06T07:20:51.008Z,24.36
2018-07-06T07:21:51.036Z,24.39
2018-07-06T07:22:51.324Z,24.43
2018-07-06T07:23:51.474Z,24.39
2018-07-06T07:24:51.106Z,24.43
2018-07-06T07:25:51.396Z,24.45
2018-07-06T07:26:51.423Z,24.43
2018-07-06T07:27:51.445Z,24.39
2018-07-06T07:28:51.217Z,24.53
2018-07-06T07:29:51.502Z,24.55
2018-07-06T07:30:51.572Z,24.54
2018-07-06T07:31:51.286Z,24.54
2018-07-06T07:32:51.310Z,24.63
2018-07-06T07:33:51.604Z,24.68
2018-07-06T07:34:51.622Z,24.58
2018-07-06T07:35:51.381Z,24.58
2018-07-06T07:36:51.672Z,24.6
2018-07-06T07:37:51.698Z,24.65
2018-07-06T07:38:51.759Z,24.7
2018-07-06T07:39:51.484Z,24.7
2018-07-06T07:40:51.503Z,24.74
2018-07-06T07:41:51.795Z,24.74
2018-07-06T07:42:51.819Z,24.74
2018-07-06T07:43:51.849Z,24.73
2018-07-06T07:44:51.868Z,24.84
2018-07-06T07:45:51.637Z,24.84
2018-07-06T07:46:51.670Z,24.91
2018-07-06T07:47:51.701Z,24.85
2018-07-06T07:48:52.007Z,24.85
2018-07-06T07:49:51.469Z,24.89
2018-07-06T07:50:51.491Z,24.95
2018-07-06T07:51:51.785Z,24.98
2018-07-06T07:52:51.812Z,24.96
2018-07-06T07:53:52.255Z,24.99
2018-07-06T07:54:52.124Z,24.99
2018-07-06T07:55:52.183Z,25.03
2018-07-06T07:56:52.177Z,25.06
2018-07-06T07:57:51.933Z,25.07
2018-07-06T07:58:51.965Z,25.16
2018-07-06T07:59:52.254Z,25.1
2018-07-06T08:00:52.817Z,25.13
2018-07-06T08:01:52.301Z,25.18
2018-07-06T08:02:52.340Z,25.08
2018-07-06T08:03:52.081Z,25.14
2018-07-06T08:04:52.380Z,25.13
2018-07-06T08:05:52.440Z,25.14
2018-07-06T08:06:52.433Z,25.18
2018-07-06T08:07:52.198Z,25.21
2018-07-06T08:08:52.478Z,25.22
2018-07-06T08:09:52.503Z,25.29
2018-07-06T08:10:52.542Z,25.29
2018-07-06T08:11:52.837Z,25.26
2018-07-06T08:12:52.579Z,25.26
2018-07-06T08:13:52.606Z,25.29
2018-07-06T08:14:52.627Z,25.33
2018-07-06T08:15:52.390Z,25.33
2018-07-06T08:16:52.508Z,25.4
2018-07-06T08:17:52.703Z,25.36
2018-07-06T08:18:52.471Z,25.44
2018-07-06T08:19:52.495Z,25.43
2018-07-06T08:20:52.786Z,25.47
2018-07-06T08:21:52.541Z,25.5
2018-07-06T08:22:52.833Z,25.5
2018-07-06T08:23:52.863Z,25.43
2018-07-06T08:24:52.888Z,25.46
2018-07-06T08:25:52.644Z,25.5
2018-07-06T08:26:52.672Z,25.47
2018-07-06T08:27:52.967Z,25.46
2018-07-06T08:28:52.988Z,25.6
2018-07-06T08:29:53.022Z,25.58
2018-07-06T08:30:53.044Z,25.58
2018-07-06T08:31:53.067Z,25.54
2018-07-06T08:32:53.091Z,25.54
2018-07-06T08:33:53.113Z,25.58
2018-07-06T08:34:52.882Z,25.63
2018-07-06T08:35:53.170Z,25.55
2018-07-06T08:36:53.192Z,25.6
2018-07-06T08:37:52.955Z,25.63
2018-07-06T08:38:53.251Z,25.68
2018-07-06T08:39:53.413Z,25.78
2018-07-06T08:40:53.297Z,25.72
2018-07-06T08:41:53.323Z,25.69
2018-07-06T08:42:53.092Z,25.72
2018-07-06T08:43:53.107Z,25.8
2018-07-06T08:44:53.301Z,25.8
2018-07-06T08:45:52.891Z,25.81
2018-07-06T08:46:53.450Z,25.78
2018-07-06T08:47:53.476Z,25.85
2018-07-06T08:48:53.232Z,25.8
2018-07-06T08:49:52.997Z,25.81
2018-07-06T08:50:53.576Z,25.85
2018-07-06T08:51:53.318Z,25.81
2018-07-06T08:52:53.340Z,25.85
2018-07-06T08:53:53.368Z,25.85
2018-07-06T08:54:53.396Z,25.83
2018-07-06T08:55:53.424Z,25.84
2018-07-06T08:56:53.443Z,25.85
2018-07-06T08:57:53.755Z,25.87
2018-07-06T08:58:53.756Z,25.91
2018-07-06T08:59:53.783Z,25.81
2018-07-06T09:00:53.819Z,25.9
2018-07-06T09:01:53.574Z,25.95
2018-07-06T09:02:53.331Z,25.93
2018-07-06T09:03:53.625Z,26
2018-07-06T09:04:53.652Z,25.95
2018-07-06T09:05:53.677Z,25.96
2018-07-06T09:06:53.703Z,25.99
2018-07-06T09:07:54.003Z,25.98
2018-07-06T09:08:53.752Z,26.05
2018-07-06T09:09:54.051Z,26.1
2018-07-06T09:10:53.807Z,26.02
2018-07-06T09:11:54.094Z,26.09
2018-07-06T09:12:54.166Z,26.1
2018-07-06T09:13:53.883Z,26.1
2018-07-06T09:14:53.919Z,26.05
2018-07-06T09:15:53.932Z,26.13
2018-07-06T09:16:54.208Z,26.06
2018-07-06T09:17:54.140Z,26.05
2018-07-06T09:18:54.099Z,26.09
2018-07-06T09:19:55.542Z,26.06
2018-07-06T09:20:54.336Z,26.07
2018-07-06T09:21:54.360Z,26.06
2018-07-06T09:22:54.118Z,26.06
2018-07-06T09:23:54.420Z,26.1
2018-07-06T09:24:54.167Z,26.07
2018-07-06T09:25:55.509Z,26.06
2018-07-06T09:26:54.229Z,26.06
2018-07-06T09:27:54.505Z,26.05
2018-07-06T09:28:54.272Z,26.07
2018-07-06T09:29:54.571Z,26.02
2018-07-06T09:30:54.326Z,26.06
2018-07-06T09:31:54.617Z,26.02
2018-07-06T09:32:54.657Z,26.07
2018-07-06T09:33:54.420Z,26.05
2018-07-06T09:34:54.431Z,26.15
2018-07-06T09:35:54.921Z,26.13
2018-07-06T09:36:54.482Z,26.15
2018-07-06T09:37:54.777Z,26.09
2018-07-06T09:38:54.818Z,26.09
2018-07-06T09:39:54.829Z,26.09
2018-07-06T09:40:54.864Z,26.15
2018-07-06T09:41:54.883Z,26.22
2018-07-06T09:42:54.928Z,26.19
2018-07-06T09:43:54.672Z,26.19
2018-07-06T09:44:54.960Z,26.21
2018-07-06T09:45:54.984Z,26.13
2018-07-06T09:46:54.747Z,26.23
2018-07-06T09:47:54.772Z,26.22
2018-07-06T09:48:55.309Z,26.06
2018-07-06T09:49:54.831Z,26.1
2018-07-06T09:50:55.279Z,26.21
2018-07-06T09:51:55.142Z,26.28
2018-07-06T09:52:55.177Z,26.26
2018-07-06T09:53:54.926Z,26.22
2018-07-06T09:54:55.229Z,26.29
2018-07-06T09:55:55.259Z,26.21
2018-07-06T09:56:55.011Z,26.31
2018-07-06T09:57:55.220Z,26.34
2018-07-06T09:58:55.372Z,26.25
2018-07-06T09:59:55.361Z,26.37
2018-07-06T10:00:55.120Z,26.36
2018-07-06T10:01:55.138Z,26.36
2018-07-06T10:02:55.435Z,26.36
2018-07-06T10:03:55.464Z,26.41
2018-07-06T10:04:55.224Z,26.45
2018-07-06T10:05:55.249Z,26.48
2018-07-06T10:06:55.270Z,26.48
2018-07-06T10:07:55.032Z,26.52
2018-07-06T10:08:55.590Z,26.55
2018-07-06T10:09:55.879Z,26.56
2018-07-06T10:10:55.777Z,26.55
2018-07-06T10:11:55.671Z,26.56
2018-07-06T10:12:55.703Z,26.58
2018-07-06T10:13:55.457Z,26.56
2018-07-06T10:14:55.753Z,26.62
2018-07-06T10:15:55.674Z,26.65
2018-07-06T10:16:55.807Z,26.63
2018-07-06T10:17:55.564Z,26.63
2018-07-06T10:18:55.860Z,26.66
2018-07-06T10:19:56.148Z,26.58
2018-07-06T10:20:55.914Z,26.66
2018-07-06T10:21:56.147Z,26.63
2018-07-06T10:22:55.971Z,26.68
2018-07-06T10:23:55.762Z,26.71
2018-07-06T10:24:55.757Z,26.71
2018-07-06T10:25:55.781Z,26.75
2018-07-06T10:26:56.247Z,26.74
2018-07-06T10:27:55.829Z,26.66
2018-07-06T10:28:56.125Z,26.75
2018-07-06T10:29:56.151Z,26.77
2018-07-06T10:30:56.188Z,26.75
2018-07-06T10:31:56.200Z,26.73
2018-07-06T10:32:55.972Z,26.8
2018-07-06T10:33:56.200Z,26.84
2018-07-06T10:34:56.015Z,26.84
2018-07-06T10:35:56.325Z,26.77
2018-07-06T10:36:56.336Z,26.88
2018-07-06T10:37:56.362Z,26.75
2018-07-06T10:38:56.386Z,26.83
2018-07-06T10:39:57.251Z,26.8
2018-07-06T10:40:56.186Z,26.78
2018-07-06T10:41:56.200Z,26.84
2018-07-06T10:42:56.228Z,26.75
2018-07-06T10:43:56.532Z,26.88
2018-07-06T10:44:56.557Z,26.81
2018-07-06T10:45:56.577Z,26.89
2018-07-06T10:46:56.616Z,26.9
2018-07-06T10:47:56.362Z,26.95
2018-07-06T10:48:56.391Z,26.88
2018-07-06T10:49:56.415Z,26.88
2018-07-06T10:50:56.438Z,26.88
2018-07-06T10:51:56.201Z,26.88
2018-07-06T10:52:56.501Z,26.95
2018-07-06T10:53:56.256Z,26.92
2018-07-06T10:54:56.819Z,26.89
2018-07-06T10:55:56.841Z,26.93
2018-07-06T10:56:56.866Z,26.93
2018-07-06T10:57:56.361Z,27.05
2018-07-06T10:58:56.658Z,27.03
2018-07-06T10:59:56.952Z,27.08
2018-07-06T11:00:56.833Z,27.11
2018-07-06T11:01:56.737Z,27.14
2018-07-06T11:02:57.032Z,27.17
2018-07-06T11:03:57.053Z,27.21
2018-07-06T11:04:57.210Z,27.35
2018-07-06T11:05:56.844Z,27.3
2018-07-06T11:06:57.140Z,27.25
2018-07-06T11:07:57.139Z,27.29
2018-07-06T11:08:56.990Z,27.3
2018-07-06T11:09:56.951Z,27.35
2018-07-06T11:10:57.248Z,27.42
2018-07-06T11:11:56.757Z,27.35
2018-07-06T11:12:57.030Z,27.35
2018-07-06T11:13:57.331Z,27.32
2018-07-06T11:14:57.350Z,27.47
2018-07-06T11:15:57.114Z,27.48
2018-07-06T11:16:57.414Z,27.55
2018-07-06T11:17:57.437Z,27.47
2018-07-06T11:18:57.194Z,27.63
2018-07-06T11:19:57.492Z,27.63
2018-07-06T11:20:57.512Z,27.74
2018-07-06T11:21:57.540Z,27.73
2018-07-06T11:22:57.569Z,27.9
2018-07-06T11:23:57.330Z,28.01
2018-07-06T11:24:57.359Z,28.14
2018-07-06T11:25:57.649Z,28.12
2018-07-06T11:26:57.415Z,28.26
2018-07-06T11:27:57.703Z,28.38
2018-07-06T11:28:57.729Z,28.41
2018-07-06T11:29:57.492Z,28.39
2018-07-06T11:30:57.518Z,28.54
2018-07-06T11:31:57.816Z,28.67
2018-07-06T11:32:57.841Z,28.67
2018-07-06T11:33:57.865Z,28.79
2018-07-06T11:34:57.908Z,28.86
2018-07-06T11:35:57.926Z,28.98
2018-07-06T11:36:57.969Z,29.05
2018-07-06T11:37:58.297Z,29.02
2018-07-06T11:38:58.008Z,29.14
2018-07-06T11:39:58.039Z,29.27
2018-07-06T11:40:57.793Z,29.31
2018-07-06T11:41:58.086Z,29.29
2018-07-06T11:42:58.118Z,29.36
2018-07-06T11:43:57.881Z,29.41
2018-07-06T11:44:58.562Z,29.5
2018-07-06T11:45:58.207Z,29.56
2018-07-06T11:46:58.297Z,29.51
2018-07-06T11:47:58.259Z,29.56
2018-07-06T11:48:58.020Z,29.6
2018-07-06T11:49:58.048Z,29.6
2018-07-06T11:50:58.070Z,29.65
2018-07-06T11:51:58.373Z,29.68
2018-07-06T11:52:58.401Z,29.71
2018-07-06T11:53:58.164Z,29.76
2018-07-06T11:54:58.456Z,29.88
2018-07-06T11:55:58.630Z,29.82
2018-07-06T11:56:58.241Z,29.93
2018-07-06T11:57:58.277Z,29.94
2018-07-06T11:58:58.030Z,30
2018-07-06T11:59:58.599Z,30.03
2018-07-06T12:00:58.367Z,30.16
2018-07-06T12:01:58.862Z,30.23
2018-07-06T12:02:58.676Z,30.16
2018-07-06T12:03:58.571Z,30.23
2018-07-06T12:04:58.734Z,30.24
2018-07-06T12:05:58.231Z,30.28
2018-07-06T12:06:58.795Z,30.31
2018-07-06T12:07:58.844Z,30.35
2018-07-06T12:08:58.853Z,30.47
2018-07-06T12:09:58.890Z,30.4
2018-07-06T12:10:58.923Z,30.5
2018-07-06T12:11:58.947Z,30.54
2018-07-06T12:12:58.696Z,30.61
2018-07-06T12:13:59.004Z,30.65
2018-07-06T12:14:59.020Z,30.62
2018-07-06T12:15:59.053Z,30.65
2018-07-06T12:16:58.823Z,30.69
2018-07-06T12:17:59.118Z,30.75
2018-07-06T12:18:58.878Z,30.8
2018-07-06T12:19:59.176Z,30.78
2018-07-06T12:20:59.360Z,30.69
2018-07-06T12:21:59.237Z,30.84
2018-07-06T12:22:59.056Z,30.88
2018-07-06T12:23:59.015Z,30.85
2018-07-06T12:24:59.048Z,30.85
2018-07-06T12:25:59.075Z,30.9
2018-07-06T12:26:59.107Z,31.02
2018-07-06T12:27:59.594Z,30.97
2018-07-06T12:28:59.500Z,31.03
2018-07-06T12:29:59.232Z,31.12
2018-07-06T12:31:05.347Z,31.09
2018-07-06T12:31:59.522Z,31.15
2018-07-06T12:32:59.547Z,31.17
2018-07-06T12:33:59.577Z,31.22
2018-07-06T12:34:59.606Z,31.22
2018-07-06T12:35:59.635Z,31.24
2018-07-06T12:36:59.815Z,31.22
2018-07-06T12:37:59.696Z,31.31
2018-07-06T12:38:59.724Z,31.37
2018-07-06T12:39:59.755Z,31.43
2018-07-06T12:40:59.530Z,31.33
2018-07-06T12:41:59.809Z,31.42
2018-07-06T12:42:59.844Z,31.43
2018-07-06T12:43:59.870Z,31.44
2018-07-06T12:44:59.911Z,31.59
2018-07-06T12:45:59.394Z,31.56
2018-07-06T12:46:59.700Z,31.59
2018-07-06T12:48:00.260Z,31.65
2018-07-06T12:48:59.758Z,31.71
2018-07-06T12:50:00.056Z,31.69
2018-07-06T12:50:59.815Z,31.73
2018-07-06T12:52:00.159Z,31.76
2018-07-06T12:53:00.148Z,31.8
2018-07-06T12:53:59.896Z,31.9
2018-07-06T12:55:00.195Z,31.97
2018-07-06T12:56:00.229Z,32.07
2018-07-06T12:57:00.053Z,32.14